createdAt,value
2024-04-13T00:02:04.490Z,20.05
2024-04-13T00:04:31.602Z,13.05
2024-04-13T00:06:58.325Z,10.70
2024-04-13T00:09:25.078Z,15.65
2024-04-13T00:11:51.776Z,11.20
2024-04-13T00:14:18.557Z,12.55
2024-04-13T00:16:45.384Z,18.05
2024-04-13T00:19:16.506Z,15.43
2024-04-13T00:21:43.478Z,11.45
2024-04-13T00:24:11.943Z,10.00
2024-04-13T00:26:38.645Z,14.27
2024-04-13T00:29:08.244Z,12.15
2024-04-13T00:31:35.149Z,27.52
2024-04-13T00:36:37.162Z,15.25
2024-04-13T00:39:06.220Z,16.17
2024-04-13T00:41:33.094Z,13.35
2024-04-13T00:44:01.298Z,11.45
2024-04-13T00:46:33.309Z,11.32
2024-04-13T00:49:01.448Z,12.18
2024-04-13T00:51:31.501Z,12.88
2024-04-13T00:53:58.376Z,11.77
2024-04-13T00:56:26.249Z,11.70
2024-04-13T00:58:53.572Z,15.15
2024-04-13T01:01:20.927Z,12.65
2024-04-13T01:03:49.066Z,11.07
2024-04-13T01:06:16.088Z,11.65
2024-04-13T01:08:45.424Z,11.65
2024-04-13T01:11:13.974Z,16.13
2024-04-13T01:13:42.218Z,11.95
2024-04-13T01:16:09.115Z,14.13
2024-04-13T01:18:35.918Z,11.52
2024-04-13T01:21:02.968Z,13.48
2024-04-13T01:23:31.449Z,15.30
2024-04-13T01:26:01.141Z,10.57
2024-04-13T01:28:32.300Z,17.60
2024-04-13T01:30:59.114Z,10.60
2024-04-13T01:33:25.995Z,11.93
2024-04-13T01:35:57.561Z,11.65
2024-04-13T01:38:24.227Z,14.52
2024-04-13T01:40:50.910Z,15.88
2024-04-13T01:43:20.226Z,12.75
2024-04-13T01:45:46.938Z,11.02
2024-04-13T01:48:13.717Z,11.60
2024-04-13T01:50:41.040Z,18.23
2024-04-13T01:53:08.116Z,15.20
2024-04-13T01:58:01.371Z,12.57
2024-04-13T02:00:30.761Z,13.73
2024-04-13T02:02:57.479Z,14.07
2024-04-13T02:05:24.213Z,13.68
2024-04-13T02:07:50.897Z,14.63
2024-04-13T02:10:17.731Z,10.00
2024-04-13T02:12:44.427Z,8.00
2024-04-13T02:15:11.194Z,11.40
2024-04-13T02:17:42.458Z,13.32
2024-04-13T02:20:12.852Z,14.50
2024-04-13T02:22:39.516Z,10.68
2024-04-13T02:25:09.937Z,10.55
2024-04-13T02:27:36.718Z,14.68
2024-04-13T02:30:04.054Z,19.17
2024-04-13T02:32:30.812Z,10.02
2024-04-13T02:35:00.517Z,11.38
2024-04-13T02:37:27.272Z,10.52
2024-04-13T02:39:53.918Z,13.57
2024-04-13T02:42:20.592Z,12.00
2024-04-13T02:44:48.281Z,11.45
2024-04-13T02:47:14.968Z,14.13
2024-04-13T02:49:41.636Z,13.65
2024-04-13T02:52:11.019Z,11.48
2024-04-13T02:54:38.178Z,14.40
2024-04-13T02:57:06.091Z,12.18
2024-04-13T02:59:32.859Z,11.68
2024-04-13T03:01:59.581Z,12.23
2024-04-13T03:04:27.147Z,12.50
2024-04-13T03:06:53.830Z,12.05
2024-04-13T03:09:23.149Z,10.82
2024-04-13T03:11:49.889Z,13.93
2024-04-13T03:14:16.688Z,10.07
2024-04-13T03:16:43.461Z,16.10
2024-04-13T03:19:10.208Z,14.90
2024-04-13T03:21:37.876Z,18.20
2024-04-13T03:24:05.544Z,11.73
2024-04-13T03:26:34.910Z,14.27
2024-04-13T03:29:01.682Z,13.65
2024-04-13T03:31:28.416Z,13.52
2024-04-13T03:33:57.510Z,16.40
2024-04-13T03:36:24.386Z,10.40
2024-04-13T03:38:56.999Z,11.82
2024-04-13T03:41:23.840Z,11.65
2024-04-13T03:43:53.147Z,12.85
2024-04-13T03:46:19.826Z,9.27
2024-04-13T03:48:46.694Z,13.15
2024-04-13T03:51:14.347Z,12.85
2024-04-13T03:53:41.160Z,13.05
2024-04-13T03:56:07.932Z,16.48
2024-04-13T03:58:34.706Z,10.98
2024-04-13T04:01:04.340Z,14.52
2024-04-13T04:03:31.183Z,13.73
2024-04-13T04:05:57.980Z,12.95
2024-04-13T04:08:24.697Z,13.10
2024-04-13T04:10:51.360Z,12.70
2024-04-13T04:13:18.024Z,16.35
2024-04-13T04:15:44.907Z,13.77
2024-04-13T04:18:14.511Z,13.20
2024-04-13T04:20:42.512Z,11.20
2024-04-13T04:23:09.183Z,13.85
2024-04-13T04:25:35.894Z,12.88
2024-04-13T04:28:02.658Z,13.30
2024-04-13T04:30:29.546Z,14.23
2024-04-13T04:32:56.326Z,11.18
2024-04-13T04:35:25.719Z,11.55
2024-04-13T04:37:52.393Z,19.85
2024-04-13T04:40:19.326Z,13.98
2024-04-13T04:42:46.058Z,13.32
2024-04-13T04:45:12.903Z,13.90
2024-04-13T04:47:39.808Z,14.32
2024-04-13T04:50:07.328Z,13.02
2024-04-13T04:52:37.280Z,16.15
2024-04-13T04:55:06.504Z,14.68
2024-04-13T04:57:33.227Z,16.40
2024-04-13T04:59:59.958Z,14.50
2024-04-13T05:02:26.779Z,17.65
2024-04-13T05:04:53.580Z,15.57
2024-04-13T05:07:21.048Z,11.98
2024-04-13T05:09:50.472Z,15.02
2024-04-13T05:12:17.269Z,15.57
2024-04-13T05:14:44.033Z,17.70
2024-04-13T05:17:10.780Z,15.85
2024-04-13T05:19:39.688Z,15.90
2024-04-13T05:22:06.623Z,19.30
2024-04-13T05:24:33.699Z,12.98
2024-04-13T05:27:08.361Z,12.70
2024-04-13T05:29:37.239Z,15.63
2024-04-13T05:32:04.698Z,16.75
2024-04-13T05:34:31.479Z,14.18
2024-04-13T05:36:58.145Z,13.15
2024-04-13T05:39:24.884Z,16.77
2024-04-13T05:41:51.589Z,18.33
2024-04-13T05:44:20.881Z,15.63
2024-04-13T05:46:47.670Z,12.60
2024-04-13T05:49:14.437Z,15.15
2024-04-13T05:51:41.405Z,15.13
2024-04-13T05:56:34.765Z,14.30
2024-04-13T05:59:01.438Z,13.48
2024-04-13T06:01:32.441Z,17.45
2024-04-13T06:03:59.239Z,12.77
2024-04-13T06:06:25.995Z,12.80
2024-04-13T06:08:52.713Z,15.38
2024-04-13T06:11:19.480Z,15.25
2024-04-13T06:13:46.237Z,11.45
2024-04-13T06:16:13.063Z,14.10
2024-04-13T06:18:42.447Z,14.52
2024-04-13T06:21:09.190Z,12.75
2024-04-13T06:23:35.949Z,14.50
2024-04-13T06:26:02.736Z,13.23
2024-04-13T06:28:29.465Z,13.80
2024-04-13T06:30:56.222Z,12.93
2024-04-13T06:33:23.220Z,14.02
2024-04-13T06:38:24.842Z,18.48
2024-04-13T06:40:52.092Z,14.60
2024-04-13T06:43:18.829Z,13.20
2024-04-13T06:45:45.672Z,10.55
2024-04-13T06:48:12.404Z,15.02
2024-04-13T06:50:39.294Z,15.10
2024-04-13T06:53:08.575Z,14.82
2024-04-13T06:55:35.292Z,10.85
2024-04-13T06:58:01.986Z,18.98
2024-04-13T07:00:28.735Z,13.32
2024-04-13T07:02:55.486Z,13.57
2024-04-13T07:05:22.265Z,10.45
2024-04-13T07:07:48.985Z,11.80
2024-04-13T07:10:18.350Z,11.07
2024-04-13T07:12:45.127Z,10.52
2024-04-13T07:15:11.993Z,9.55
2024-04-13T07:20:58.778Z,8.40
2024-04-13T07:23:25.545Z,8.32
2024-04-13T07:26:00.670Z,10.35
2024-04-13T07:28:28.050Z,13.45
2024-04-13T07:30:54.774Z,9.48
2024-04-13T07:33:21.627Z,10.20
2024-04-13T07:35:49.465Z,10.45
2024-04-13T07:38:16.328Z,11.05
2024-04-13T07:40:43.036Z,10.88
2024-04-13T07:43:12.385Z,7.38
2024-04-13T07:45:39.158Z,12.32
2024-04-13T07:48:07.928Z,11.73
2024-04-13T07:50:34.912Z,8.63
2024-04-13T07:53:01.593Z,13.15
2024-04-13T07:55:29.081Z,10.27
2024-04-13T07:57:55.843Z,8.43
2024-04-13T08:00:25.687Z,8.77
2024-04-13T08:02:52.468Z,10.80
2024-04-13T08:05:19.239Z,9.52
2024-04-13T08:07:45.939Z,8.25
2024-04-13T08:10:12.607Z,8.38
2024-04-13T08:12:39.341Z,9.60
2024-04-13T08:15:09.972Z,11.20
2024-04-13T08:17:39.585Z,7.55
2024-04-13T08:20:10.367Z,9.05
2024-04-13T08:22:37.618Z,7.80
2024-04-13T08:25:05.909Z,7.43
2024-04-13T08:27:34.683Z,10.07
2024-04-13T08:30:01.523Z,5.43
2024-04-13T08:34:57.521Z,6.35
2024-04-13T08:37:24.195Z,7.95
2024-04-13T08:39:51.090Z,5.43
2024-04-13T08:42:23.811Z,7.35
2024-04-13T08:44:53.174Z,7.97
2024-04-13T08:47:20.372Z,6.88
2024-04-13T08:49:48.754Z,8.50
2024-04-13T08:52:18.803Z,4.72
2024-04-13T08:54:46.725Z,10.80
2024-04-13T08:57:17.055Z,4.90
2024-04-13T08:59:44.588Z,4.53
2024-04-13T09:02:13.884Z,9.77
2024-04-13T09:04:40.760Z,7.10
2024-04-13T09:07:07.498Z,6.57
2024-04-13T09:12:03.872Z,5.82
2024-04-13T09:14:30.644Z,8.40
2024-04-13T09:19:24.339Z,8.82
2024-04-13T09:21:51.345Z,7.03
2024-04-13T09:24:18.078Z,7.40
2024-04-13T09:29:25.409Z,9.38
2024-04-13T09:31:52.260Z,5.97
2024-04-13T09:34:19.230Z,5.70
2024-04-13T09:36:46.213Z,4.57
2024-04-13T09:39:20.385Z,8.43
2024-04-13T09:41:49.839Z,7.85
2024-04-13T09:44:25.098Z,7.07
2024-04-13T09:46:51.747Z,5.35
2024-04-13T09:49:18.468Z,7.50
2024-04-13T09:54:15.006Z,6.43
2024-04-13T09:56:43.183Z,8.00
2024-04-13T09:59:13.595Z,6.65
2024-04-13T10:01:40.589Z,7.22
2024-04-13T10:04:07.678Z,6.32
2024-04-13T10:06:35.701Z,6.30
2024-04-13T10:09:05.913Z,7.25
2024-04-13T10:11:33.810Z,4.60
2024-04-13T10:14:00.772Z,6.35
2024-04-13T10:16:30.577Z,7.80
2024-04-13T10:18:57.571Z,7.60
2024-04-13T10:21:24.732Z,9.13
2024-04-13T10:23:55.939Z,9.07
2024-04-13T10:26:26.302Z,8.07
2024-04-13T10:28:57.832Z,5.40
2024-04-13T10:31:29.835Z,6.50
2024-04-13T10:33:57.820Z,7.38
2024-04-13T10:36:28.421Z,6.40
2024-04-13T10:38:56.103Z,6.03
2024-04-13T10:41:30.550Z,6.80
2024-04-13T10:43:58.090Z,7.25
2024-04-13T10:46:25.464Z,7.40
2024-04-13T10:48:55.055Z,4.43
2024-04-13T10:51:22.789Z,5.70
2024-04-13T10:53:50.201Z,4.47
2024-04-13T10:56:17.079Z,4.60
2024-04-13T10:58:43.763Z,4.57
2024-04-13T11:03:37.304Z,5.03
2024-04-13T11:06:07.044Z,7.72
2024-04-13T11:08:34.598Z,6.78
2024-04-13T11:11:02.854Z,5.22
2024-04-13T11:13:31.584Z,5.28
2024-04-13T11:15:58.456Z,6.53
2024-04-13T11:18:25.404Z,5.97
2024-04-13T11:20:54.562Z,5.88
2024-04-13T11:23:24.009Z,10.20
2024-04-13T11:25:50.833Z,6.38
2024-04-13T11:28:17.532Z,6.75
2024-04-13T11:33:11.841Z,6.90
2024-04-13T11:35:39.427Z,4.22
2024-04-13T11:38:06.702Z,5.50
2024-04-13T11:40:39.442Z,5.30
2024-04-13T11:43:06.367Z,6.28
2024-04-13T11:45:34.700Z,5.57
2024-04-13T11:48:02.304Z,4.45
2024-04-13T11:50:30.962Z,5.18
2024-04-13T11:52:57.818Z,5.18
2024-04-13T11:55:25.198Z,8.82
2024-04-13T11:57:54.645Z,6.72
2024-04-13T12:00:22.046Z,6.40
2024-04-13T12:02:48.978Z,4.47
2024-04-13T12:05:15.947Z,4.32
2024-04-13T12:07:44.033Z,4.47
2024-04-13T12:10:10.956Z,8.00
2024-04-13T12:12:37.718Z,5.40
2024-04-13T12:15:07.749Z,4.25
2024-04-13T12:17:34.506Z,5.22
2024-04-13T12:20:02.216Z,5.22
2024-04-13T12:22:29.566Z,5.65
2024-04-13T12:24:56.461Z,7.65
2024-04-13T12:27:23.697Z,3.60
2024-04-13T12:29:50.477Z,4.30
2024-04-13T12:34:48.508Z,7.22
2024-04-13T12:37:16.693Z,3.72
2024-04-13T12:39:46.016Z,8.38
2024-04-13T12:42:12.732Z,5.60
2024-04-13T12:49:36.160Z,5.45
2024-04-13T12:52:02.853Z,5.88
2024-04-13T12:56:56.217Z,6.57
2024-04-13T13:01:49.483Z,8.93
2024-04-13T13:06:45.369Z,6.70
2024-04-13T13:09:12.123Z,4.38
2024-04-13T13:14:07.612Z,5.30
2024-04-13T13:19:00.962Z,6.15
2024-04-13T13:21:27.804Z,5.88
2024-04-13T13:23:57.385Z,4.25
2024-04-13T13:26:24.109Z,4.03
2024-04-13T13:31:20.693Z,3.88
2024-04-13T13:36:14.354Z,4.38
2024-04-13T13:38:41.812Z,2.92
2024-04-13T13:41:11.124Z,5.85
2024-04-13T13:43:37.798Z,5.38
2024-04-13T13:48:31.436Z,8.00
2024-04-13T13:50:58.574Z,6.75
2024-04-13T13:53:25.238Z,3.92
2024-04-13T13:58:21.088Z,4.63
2024-04-13T14:00:48.601Z,5.22
2024-04-13T14:03:15.905Z,9.20
2024-04-13T14:05:42.649Z,4.97
2024-04-13T14:08:09.334Z,4.00
2024-04-13T14:13:03.447Z,4.78
2024-04-13T14:15:34.969Z,5.22
2024-04-13T14:18:03.704Z,5.45
2024-04-13T14:20:30.410Z,7.03
2024-04-13T14:25:24.381Z,4.85
2024-04-13T14:27:51.144Z,7.53
2024-04-13T14:30:18.091Z,5.47
2024-04-13T14:32:48.034Z,8.10
2024-04-13T14:35:15.005Z,7.07
2024-04-13T14:37:41.725Z,5.55
2024-04-13T14:40:09.431Z,4.10
2024-04-13T14:42:36.169Z,4.70
2024-04-13T14:45:04.270Z,3.15
2024-04-13T14:47:31.037Z,5.75
2024-04-13T14:50:00.718Z,3.70
2024-04-13T14:52:28.084Z,5.55
2024-04-13T14:54:55.574Z,6.90
2024-04-13T14:57:22.295Z,4.20
2024-04-13T14:59:49.248Z,5.15
2024-04-13T15:02:16.167Z,5.10
2024-04-13T15:04:42.937Z,4.88
2024-04-13T15:07:12.365Z,4.57
2024-04-13T15:09:39.050Z,20.75
2024-04-13T15:12:06.297Z,4.75
2024-04-13T15:14:32.970Z,5.55
2024-04-13T15:19:27.435Z,4.28
2024-04-13T15:21:54.215Z,6.40
2024-04-13T15:24:23.734Z,7.55
2024-04-13T15:26:50.478Z,7.20
2024-04-13T15:31:44.563Z,4.93
2024-04-13T15:36:37.930Z,6.55
2024-04-13T15:39:04.728Z,4.82
2024-04-13T15:41:34.043Z,4.18
2024-04-13T15:44:00.803Z,6.28
2024-04-13T15:46:30.688Z,4.95
2024-04-13T15:48:58.949Z,4.82
2024-04-13T15:51:25.742Z,7.40
2024-04-13T15:54:00.841Z,5.60
2024-04-13T15:56:37.318Z,4.40
2024-04-13T15:59:04.371Z,4.10
2024-04-13T16:01:31.195Z,7.95
2024-04-13T16:03:58.099Z,3.78
2024-04-13T16:06:24.937Z,5.53
2024-04-13T16:11:18.273Z,6.05
2024-04-13T16:13:49.085Z,7.93
2024-04-13T16:16:21.599Z,8.82
2024-04-13T16:18:53.934Z,6.80
2024-04-13T16:21:20.781Z,5.22
2024-04-13T16:23:47.588Z,4.50
2024-04-13T16:28:40.830Z,5.13
2024-04-13T16:33:37.003Z,5.50
2024-04-13T16:36:04.793Z,5.18
2024-04-13T16:38:31.992Z,6.97
2024-04-13T16:40:58.671Z,6.78
2024-04-13T16:45:51.977Z,5.18
2024-04-13T16:48:21.716Z,3.85
2024-04-13T16:50:55.398Z,5.47
2024-04-13T16:53:22.939Z,3.55
2024-04-13T16:55:49.685Z,3.83
2024-04-13T17:00:42.909Z,8.38
2024-04-13T17:05:38.804Z,5.22
2024-04-13T17:08:06.261Z,4.80
2024-04-13T17:10:33.288Z,5.47
2024-04-13T17:12:59.985Z,6.80
2024-04-13T17:17:53.381Z,7.03
2024-04-13T17:20:20.163Z,5.85
2024-04-13T17:25:16.237Z,7.85
2024-04-13T17:27:42.958Z,4.50
2024-04-13T17:32:36.876Z,4.20
2024-04-13T17:35:04.925Z,3.55
2024-04-13T17:37:31.664Z,5.90
2024-04-13T17:42:27.532Z,6.57
2024-04-13T17:47:20.821Z,8.57
2024-04-13T17:52:14.017Z,7.95
2024-04-13T17:54:40.720Z,6.45
2024-04-13T17:59:36.657Z,5.68
2024-04-13T18:02:03.655Z,3.92
2024-04-13T18:04:30.324Z,3.60
2024-04-13T18:06:57.075Z,4.93
2024-04-13T18:11:50.450Z,6.47
2024-04-13T18:14:19.772Z,5.57
2024-04-13T18:16:46.454Z,4.28
2024-04-13T18:19:13.284Z,4.32
2024-04-13T18:24:08.877Z,6.35
2024-04-13T18:26:35.563Z,6.45
2024-04-13T18:29:03.328Z,3.85
2024-04-13T18:31:32.938Z,6.65
2024-04-13T18:34:01.975Z,7.60
2024-04-13T18:36:30.594Z,6.50
2024-04-13T18:41:23.893Z,7.70
2024-04-13T18:46:17.094Z,4.85
2024-04-13T18:51:14.291Z,5.55
2024-04-13T18:53:41.066Z,5.43
2024-04-13T18:58:34.613Z,4.53
2024-04-13T19:01:06.167Z,5.57
2024-04-13T19:03:33.169Z,6.78
2024-04-13T19:06:02.708Z,6.82
2024-04-13T19:08:29.891Z,8.93
2024-04-13T19:10:56.644Z,5.40
2024-04-13T19:13:23.665Z,5.90
2024-04-13T19:15:59.924Z,9.60
2024-04-13T19:18:35.386Z,5.57
2024-04-13T19:21:05.964Z,6.40
2024-04-13T19:23:32.982Z,5.57
2024-04-13T19:26:01.219Z,5.50
2024-04-13T19:28:28.744Z,4.28
2024-04-13T19:30:55.591Z,6.18
2024-04-13T19:33:23.401Z,7.97
2024-04-13T19:35:50.412Z,6.85
2024-04-13T19:38:19.828Z,7.32
2024-04-13T19:40:51.921Z,8.63
2024-04-13T19:43:18.800Z,4.70
2024-04-13T19:45:45.554Z,6.47
2024-04-13T19:48:12.346Z,4.47
2024-04-13T19:53:06.100Z,9.23
2024-04-13T19:55:35.532Z,6.47
2024-04-13T19:58:02.309Z,5.10
2024-04-13T20:00:29.068Z,5.90
2024-04-13T20:02:55.850Z,4.75
2024-04-13T20:05:22.549Z,4.63
2024-04-13T20:07:49.242Z,7.47
2024-04-13T20:10:19.126Z,6.70
2024-04-13T20:12:50.213Z,8.32
2024-04-13T20:15:35.732Z,7.20
2024-04-13T20:18:21.600Z,8.23
2024-04-13T20:20:50.519Z,5.93
2024-04-13T20:23:18.285Z,7.13
2024-04-13T20:25:45.374Z,7.35
2024-04-13T20:28:14.676Z,6.90
2024-04-13T20:30:41.353Z,8.48
2024-04-13T20:33:08.256Z,5.45
2024-04-13T20:38:01.936Z,9.95
2024-04-13T20:40:28.724Z,9.07
2024-04-13T20:42:57.929Z,7.00
2024-04-13T20:45:27.454Z,9.98
2024-04-13T20:47:54.213Z,10.45
2024-04-13T20:50:21.017Z,6.03
2024-04-13T20:52:56.678Z,8.88
2024-04-13T20:55:28.001Z,9.73
2024-04-13T20:57:54.991Z,7.95
2024-04-13T21:00:22.018Z,9.80
2024-04-13T21:02:51.459Z,7.00
2024-04-13T21:05:18.152Z,9.85
2024-04-13T21:07:44.928Z,5.63
2024-04-13T21:10:11.638Z,5.75
2024-04-13T21:12:38.412Z,7.47
2024-04-13T21:15:06.017Z,8.43
2024-04-13T21:17:32.802Z,7.95
2024-04-13T21:20:02.112Z,10.00
2024-04-13T21:22:29.346Z,9.73
2024-04-13T21:24:56.824Z,6.57
2024-04-13T21:27:23.900Z,9.23
2024-04-13T21:32:17.499Z,8.00
2024-04-13T21:34:44.391Z,7.85
2024-04-13T21:37:13.729Z,5.22
2024-04-13T21:39:40.471Z,6.57
2024-04-13T21:42:07.298Z,6.90
2024-04-13T21:44:34.619Z,7.72
2024-04-13T21:47:01.431Z,6.68
2024-04-13T21:49:28.125Z,6.25
2024-04-13T21:51:54.938Z,8.63
2024-04-13T21:56:50.975Z,4.00
2024-04-13T21:59:17.709Z,7.95
2024-04-13T22:01:44.427Z,6.82
2024-04-13T22:04:12.586Z,10.82
2024-04-13T22:06:39.475Z,7.22
2024-04-13T22:09:08.595Z,10.27
2024-04-13T22:11:38.024Z,7.53
2024-04-13T22:14:04.712Z,3.75
2024-04-13T22:16:31.409Z,3.10
2024-04-13T22:19:01.544Z,5.88
2024-04-13T22:21:28.927Z,4.38
2024-04-13T22:23:55.642Z,10.98
2024-04-13T22:26:22.439Z,9.82
2024-04-13T22:28:51.798Z,4.35
2024-04-13T22:31:19.217Z,4.38
2024-04-13T22:33:46.301Z,2.35
2024-04-13T22:36:13.041Z,3.35
2024-04-13T22:38:40.882Z,3.58
2024-04-13T22:41:07.621Z,4.75
2024-04-13T22:43:34.971Z,5.00
2024-04-13T22:46:04.698Z,4.57
2024-04-13T22:48:31.630Z,1.83
2024-04-13T22:53:28.044Z,4.38
2024-04-13T22:55:55.212Z,5.93
2024-04-13T22:58:22.141Z,4.53
2024-04-13T23:00:50.664Z,5.00
2024-04-13T23:03:20.018Z,3.42
2024-04-13T23:05:54.075Z,3.70
2024-04-13T23:08:20.782Z,2.03
2024-04-13T23:10:47.532Z,3.03
2024-04-13T23:13:14.262Z,2.13
2024-04-13T23:15:41.321Z,4.60
2024-04-13T23:18:08.182Z,5.95
2024-04-13T23:20:37.621Z,3.05
2024-04-13T23:23:04.844Z,3.67
2024-04-13T23:25:32.660Z,3.03
2024-04-13T23:27:59.427Z,2.35
2024-04-13T23:30:26.163Z,4.15
2024-04-13T23:32:52.856Z,2.47
2024-04-13T23:35:19.722Z,3.70
2024-04-13T23:37:49.019Z,2.30
2024-04-13T23:40:17.243Z,1.50
2024-04-13T23:42:43.968Z,2.15
2024-04-13T23:45:10.674Z,2.65
2024-04-13T23:47:37.565Z,3.67
2024-04-13T23:50:04.805Z,2.63
2024-04-13T23:52:31.640Z,2.92
2024-04-13T23:55:01.038Z,2.42
2024-04-13T23:57:27.811Z,1.42
2024-04-13T23:59:54.554Z,3.20
